sensor_id;sensor_type;location;lat;lon;timestamp;P1;durP1;ratioP1;P2;durP2;ratioP2
68714;SDS011;55692;53.356;10.030;2024-01-30T00:02:22;9.63;;;5.47;;
68714;SDS011;55692;53.356;10.030;2024-01-30T00:04:48;11.02;;;5.68;;
68714;SDS011;55692;53.356;10.030;2024-01-30T00:07:14;13.60;;;6.05;;
68714;SDS011;55692;53.356;10.030;2024-01-30T00:09:40;9.32;;;5.50;;
68714;SDS011;55692;53.356;10.030;2024-01-30T00:12:07;7.53;;;4.88;;
68714;SDS011;55692;53.356;10.030;2024-01-30T00:14:33;8.48;;;5.10;;
68714;SDS011;55692;53.356;10.030;2024-01-30T00:16:59;17.77;;;4.78;;
68714;SDS011;55692;53.356;10.030;2024-01-30T00:19:24;10.32;;;5.40;;
68714;SDS011;55692;53.356;10.030;2024-01-30T00:21:50;9.18;;;5.57;;
68714;SDS011;55692;53.356;10.030;2024-01-30T00:24:17;9.02;;;5.07;;
68714;SDS011;55692;53.356;10.030;2024-01-30T00:26:43;10.63;;;5.82;;
68714;SDS011;55692;53.356;10.030;2024-01-30T00:29:09;9.40;;;5.07;;
68714;SDS011;55692;53.356;10.030;2024-01-30T00:31:35;8.90;;;5.15;;
68714;SDS011;55692;53.356;10.030;2024-01-30T00:34:01;15.52;;;6.03;;
68714;SDS011;55692;53.356;10.030;2024-01-30T00:36:27;11.07;;;5.03;;
68714;SDS011;55692;53.356;10.030;2024-01-30T00:38:55;10.43;;;5.38;;
68714;SDS011;55692;53.356;10.030;2024-01-30T00:41:21;9.80;;;6.15;;
68714;SDS011;55692;53.356;10.030;2024-01-30T00:43:47;10.00;;;5.50;;
68714;SDS011;55692;53.356;10.030;2024-01-30T00:46:13;14.65;;;6.75;;
68714;SDS011;55692;53.356;10.030;2024-01-30T00:48:39;9.77;;;6.43;;
68714;SDS011;55692;53.356;10.030;2024-01-30T00:51:05;8.93;;;5.93;;
68714;SDS011;55692;53.356;10.030;2024-01-30T00:53:31;13.48;;;6.63;;
68714;SDS011;55692;53.356;10.030;2024-01-30T00:55:57;9.93;;;5.53;;
68714;SDS011;55692;53.356;10.030;2024-01-30T00:58:23;10.73;;;6.32;;
68714;SDS011;55692;53.356;10.030;2024-01-30T01:00:49;12.38;;;5.95;;
68714;SDS011;55692;53.356;10.030;2024-01-30T01:03:15;9.07;;;5.57;;
68714;SDS011;55692;53.356;10.030;2024-01-30T01:05:41;9.90;;;5.10;;
68714;SDS011;55692;53.356;10.030;2024-01-30T01:08:07;12.43;;;6.20;;
68714;SDS011;55692;53.356;10.030;2024-01-30T01:10:34;11.00;;;5.78;;
68714;SDS011;55692;53.356;10.030;2024-01-30T01:13:00;10.95;;;5.38;;
68714;SDS011;55692;53.356;10.030;2024-01-30T01:15:26;9.68;;;5.80;;
68714;SDS011;55692;53.356;10.030;2024-01-30T01:17:52;8.98;;;5.10;;
68714;SDS011;55692;53.356;10.030;2024-01-30T01:20:18;10.88;;;6.15;;
68714;SDS011;55692;53.356;10.030;2024-01-30T01:22:44;10.48;;;6.50;;
68714;SDS011;55692;53.356;10.030;2024-01-30T01:25:10;12.48;;;6.28;;
68714;SDS011;55692;53.356;10.030;2024-01-30T01:27:36;14.88;;;6.28;;
68714;SDS011;55692;53.356;10.030;2024-01-30T01:30:09;9.38;;;6.10;;
68714;SDS011;55692;53.356;10.030;2024-01-30T01:32:36;14.32;;;6.40;;
68714;SDS011;55692;53.356;10.030;2024-01-30T01:35:03;11.43;;;6.85;;
68714;SDS011;55692;53.356;10.030;2024-01-30T01:37:32;10.18;;;6.35;;
68714;SDS011;55692;53.356;10.030;2024-01-30T01:39:58;10.57;;;6.45;;
68714;SDS011;55692;53.356;10.030;2024-01-30T01:42:24;10.43;;;6.18;;
68714;SDS011;55692;53.356;10.030;2024-01-30T01:44:50;9.50;;;5.68;;
68714;SDS011;55692;53.356;10.030;2024-01-30T01:47:16;9.38;;;5.72;;
68714;SDS011;55692;53.356;10.030;2024-01-30T01:49:42;9.82;;;4.82;;
68714;SDS011;55692;53.356;10.030;2024-01-30T01:52:09;10.10;;;6.45;;
68714;SDS011;55692;53.356;10.030;2024-01-30T01:54:35;12.52;;;5.95;;
68714;SDS011;55692;53.356;10.030;2024-01-30T01:57:01;11.63;;;6.00;;
68714;SDS011;55692;53.356;10.030;2024-01-30T01:59:27;12.10;;;6.68;;
68714;SDS011;55692;53.356;10.030;2024-01-30T02:01:54;9.63;;;6.20;;
68714;SDS011;55692;53.356;10.030;2024-01-30T02:04:21;13.15;;;6.10;;
68714;SDS011;55692;53.356;10.030;2024-01-30T02:06:47;13.18;;;7.22;;
68714;SDS011;55692;53.356;10.030;2024-01-30T02:09:13;9.15;;;6.03;;
68714;SDS011;55692;53.356;10.030;2024-01-30T02:11:39;11.35;;;6.85;;
68714;SDS011;55692;53.356;10.030;2024-01-30T02:14:06;12.10;;;7.35;;
68714;SDS011;55692;53.356;10.030;2024-01-30T02:16:32;17.33;;;7.18;;
68714;SDS011;55692;53.356;10.030;2024-01-30T02:18:58;13.95;;;7.32;;
68714;SDS011;55692;53.356;10.030;2024-01-30T02:21:24;12.82;;;7.28;;
68714;SDS011;55692;53.356;10.030;2024-01-30T02:23:50;13.52;;;7.50;;
68714;SDS011;55692;53.356;10.030;2024-01-30T02:26:18;11.85;;;7.20;;
68714;SDS011;55692;53.356;10.030;2024-01-30T02:28:44;11.90;;;7.57;;
68714;SDS011;55692;53.356;10.030;2024-01-30T02:31:10;11.60;;;7.47;;
68714;SDS011;55692;53.356;10.030;2024-01-30T02:33:36;9.98;;;6.40;;
68714;SDS011;55692;53.356;10.030;2024-01-30T02:36:02;11.82;;;6.68;;
68714;SDS011;55692;53.356;10.030;2024-01-30T02:38:28;11.70;;;6.32;;
68714;SDS011;55692;53.356;10.030;2024-01-30T02:40:54;9.30;;;5.50;;
68714;SDS011;55692;53.356;10.030;2024-01-30T02:43:21;12.57;;;6.15;;
68714;SDS011;55692;53.356;10.030;2024-01-30T02:45:47;11.15;;;6.18;;
68714;SDS011;55692;53.356;10.030;2024-01-30T02:48:13;13.00;;;5.85;;
68714;SDS011;55692;53.356;10.030;2024-01-30T02:50:39;10.52;;;6.15;;
68714;SDS011;55692;53.356;10.030;2024-01-30T02:53:05;15.82;;;6.60;;
68714;SDS011;55692;53.356;10.030;2024-01-30T02:55:31;11.48;;;5.60;;
68714;SDS011;55692;53.356;10.030;2024-01-30T02:57:57;9.80;;;6.35;;
68714;SDS011;55692;53.356;10.030;2024-01-30T03:00:23;12.48;;;7.15;;
68714;SDS011;55692;53.356;10.030;2024-01-30T03:02:49;11.30;;;6.72;;
68714;SDS011;55692;53.356;10.030;2024-01-30T03:05:15;15.63;;;7.00;;
68714;SDS011;55692;53.356;10.030;2024-01-30T03:07:41;14.23;;;7.10;;
68714;SDS011;55692;53.356;10.030;2024-01-30T03:10:07;11.32;;;6.95;;
68714;SDS011;55692;53.356;10.030;2024-01-30T03:12:33;15.05;;;7.22;;
68714;SDS011;55692;53.356;10.030;2024-01-30T03:14:59;9.98;;;6.25;;
68714;SDS011;55692;53.356;10.030;2024-01-30T03:17:25;11.63;;;6.63;;
68714;SDS011;55692;53.356;10.030;2024-01-30T03:19:51;12.23;;;6.22;;
68714;SDS011;55692;53.356;10.030;2024-01-30T03:22:17;11.73;;;6.63;;
68714;SDS011;55692;53.356;10.030;2024-01-30T03:24:43;12.32;;;7.15;;
68714;SDS011;55692;53.356;10.030;2024-01-30T03:27:09;10.05;;;5.35;;
68714;SDS011;55692;53.356;10.030;2024-01-30T03:29:35;15.15;;;7.43;;
68714;SDS011;55692;53.356;10.030;2024-01-30T03:32:01;13.63;;;6.95;;
68714;SDS011;55692;53.356;10.030;2024-01-30T03:34:29;9.63;;;6.20;;
68714;SDS011;55692;53.356;10.030;2024-01-30T03:36:55;11.07;;;7.38;;
68714;SDS011;55692;53.356;10.030;2024-01-30T03:39:21;12.85;;;6.70;;
68714;SDS011;55692;53.356;10.030;2024-01-30T03:41:47;12.57;;;6.68;;
68714;SDS011;55692;53.356;10.030;2024-01-30T03:44:13;12.45;;;7.43;;
68714;SDS011;55692;53.356;10.030;2024-01-30T03:46:39;12.63;;;7.30;;
68714;SDS011;55692;53.356;10.030;2024-01-30T03:49:05;12.88;;;6.65;;
68714;SDS011;55692;53.356;10.030;2024-01-30T03:51:31;13.15;;;6.57;;
68714;SDS011;55692;53.356;10.030;2024-01-30T03:53:57;14.50;;;7.72;;
68714;SDS011;55692;53.356;10.030;2024-01-30T03:56:23;14.23;;;7.00;;
68714;SDS011;55692;53.356;10.030;2024-01-30T03:58:50;12.10;;;6.97;;
68714;SDS011;55692;53.356;10.030;2024-01-30T04:01:16;12.43;;;7.28;;
68714;SDS011;55692;53.356;10.030;2024-01-30T04:03:42;14.25;;;7.70;;
68714;SDS011;55692;53.356;10.030;2024-01-30T04:06:09;11.23;;;6.75;;
68714;SDS011;55692;53.356;10.030;2024-01-30T04:08:35;10.77;;;6.50;;
68714;SDS011;55692;53.356;10.030;2024-01-30T04:11:05;12.05;;;7.30;;
68714;SDS011;55692;53.356;10.030;2024-01-30T04:13:31;12.50;;;7.40;;
68714;SDS011;55692;53.356;10.030;2024-01-30T04:15:58;14.30;;;8.15;;
68714;SDS011;55692;53.356;10.030;2024-01-30T04:18:25;16.40;;;8.48;;
68714;SDS011;55692;53.356;10.030;2024-01-30T04:20:51;15.07;;;8.60;;
68714;SDS011;55692;53.356;10.030;2024-01-30T04:23:17;13.90;;;8.43;;
68714;SDS011;55692;53.356;10.030;2024-01-30T04:25:43;19.52;;;8.40;;
68714;SDS011;55692;53.356;10.030;2024-01-30T04:28:09;13.82;;;7.45;;
68714;SDS011;55692;53.356;10.030;2024-01-30T04:30:37;18.05;;;8.52;;
68714;SDS011;55692;53.356;10.030;2024-01-30T04:33:03;13.50;;;7.53;;
68714;SDS011;55692;53.356;10.030;2024-01-30T04:35:29;13.40;;;8.48;;
68714;SDS011;55692;53.356;10.030;2024-01-30T04:37:55;12.93;;;8.15;;
68714;SDS011;55692;53.356;10.030;2024-01-30T04:40:21;13.40;;;7.78;;
68714;SDS011;55692;53.356;10.030;2024-01-30T04:42:47;12.48;;;7.35;;
68714;SDS011;55692;53.356;10.030;2024-01-30T04:45:13;14.18;;;7.55;;
68714;SDS011;55692;53.356;10.030;2024-01-30T04:47:39;12.50;;;6.68;;
68714;SDS011;55692;53.356;10.030;2024-01-30T04:50:08;13.20;;;7.30;;
68714;SDS011;55692;53.356;10.030;2024-01-30T04:52:35;12.98;;;7.28;;
68714;SDS011;55692;53.356;10.030;2024-01-30T04:55:01;9.25;;;5.80;;
68714;SDS011;55692;53.356;10.030;2024-01-30T04:57:27;12.10;;;6.80;;
68714;SDS011;55692;53.356;10.030;2024-01-30T04:59:53;9.95;;;6.47;;
68714;SDS011;55692;53.356;10.030;2024-01-30T05:02:19;11.77;;;6.82;;
68714;SDS011;55692;53.356;10.030;2024-01-30T05:04:45;12.02;;;6.97;;
68714;SDS011;55692;53.356;10.030;2024-01-30T05:07:11;14.32;;;7.07;;
68714;SDS011;55692;53.356;10.030;2024-01-30T05:09:37;10.00;;;6.50;;
68714;SDS011;55692;53.356;10.030;2024-01-30T05:12:03;12.30;;;7.47;;
68714;SDS011;55692;53.356;10.030;2024-01-30T05:14:29;19.35;;;8.02;;
68714;SDS011;55692;53.356;10.030;2024-01-30T05:16:55;14.68;;;7.30;;
68714;SDS011;55692;53.356;10.030;2024-01-30T05:19:21;13.18;;;8.20;;
68714;SDS011;55692;53.356;10.030;2024-01-30T05:21:48;13.95;;;7.82;;
68714;SDS011;55692;53.356;10.030;2024-01-30T05:24:14;13.23;;;7.85;;
68714;SDS011;55692;53.356;10.030;2024-01-30T05:26:40;13.18;;;8.00;;
68714;SDS011;55692;53.356;10.030;2024-01-30T05:29:06;17.10;;;8.07;;
68714;SDS011;55692;53.356;10.030;2024-01-30T05:31:33;14.38;;;8.02;;
68714;SDS011;55692;53.356;10.030;2024-01-30T05:33:59;12.80;;;7.53;;
68714;SDS011;55692;53.356;10.030;2024-01-30T05:36:25;15.30;;;9.38;;
68714;SDS011;55692;53.356;10.030;2024-01-30T05:38:51;18.08;;;9.18;;
68714;SDS011;55692;53.356;10.030;2024-01-30T05:41:17;17.50;;;9.73;;
68714;SDS011;55692;53.356;10.030;2024-01-30T05:43:43;19.55;;;9.43;;
68714;SDS011;55692;53.356;10.030;2024-01-30T05:46:09;15.90;;;9.35;;
68714;SDS011;55692;53.356;10.030;2024-01-30T05:48:35;17.98;;;8.95;;
68714;SDS011;55692;53.356;10.030;2024-01-30T05:51:02;18.02;;;9.13;;
68714;SDS011;55692;53.356;10.030;2024-01-30T05:53:29;15.45;;;9.23;;
68714;SDS011;55692;53.356;10.030;2024-01-30T05:55:55;15.85;;;9.52;;
68714;SDS011;55692;53.356;10.030;2024-01-30T05:58:21;18.08;;;9.40;;
68714;SDS011;55692;53.356;10.030;2024-01-30T06:00:47;18.10;;;9.50;;
68714;SDS011;55692;53.356;10.030;2024-01-30T06:03:13;14.68;;;8.15;;
68714;SDS011;55692;53.356;10.030;2024-01-30T06:05:39;14.35;;;8.23;;
68714;SDS011;55692;53.356;10.030;2024-01-30T06:08:05;16.13;;;8.25;;
68714;SDS011;55692;53.356;10.030;2024-01-30T06:10:31;13.70;;;8.68;;
68714;SDS011;55692;53.356;10.030;2024-01-30T06:12:57;21.42;;;9.38;;
68714;SDS011;55692;53.356;10.030;2024-01-30T06:15:23;22.02;;;10.55;;
68714;SDS011;55692;53.356;10.030;2024-01-30T06:17:49;18.38;;;8.77;;
68714;SDS011;55692;53.356;10.030;2024-01-30T06:20:15;15.98;;;8.73;;
68714;SDS011;55692;53.356;10.030;2024-01-30T06:22:41;16.83;;;8.98;;
68714;SDS011;55692;53.356;10.030;2024-01-30T06:25:07;16.60;;;9.13;;
68714;SDS011;55692;53.356;10.030;2024-01-30T06:27:33;18.73;;;9.70;;
68714;SDS011;55692;53.356;10.030;2024-01-30T06:29:59;16.55;;;8.85;;
68714;SDS011;55692;53.356;10.030;2024-01-30T06:32:25;19.08;;;9.65;;
68714;SDS011;55692;53.356;10.030;2024-01-30T06:34:53;18.83;;;10.27;;
68714;SDS011;55692;53.356;10.030;2024-01-30T06:37:19;17.15;;;9.75;;
68714;SDS011;55692;53.356;10.030;2024-01-30T06:39:45;18.83;;;9.15;;
68714;SDS011;55692;53.356;10.030;2024-01-30T06:42:11;14.60;;;8.82;;
68714;SDS011;55692;53.356;10.030;2024-01-30T06:44:37;13.65;;;8.40;;
68714;SDS011;55692;53.356;10.030;2024-01-30T06:47:03;16.55;;;9.05;;
68714;SDS011;55692;53.356;10.030;2024-01-30T06:49:29;16.50;;;8.43;;
68714;SDS011;55692;53.356;10.030;2024-01-30T06:51:55;17.02;;;8.70;;
68714;SDS011;55692;53.356;10.030;2024-01-30T06:54:21;17.80;;;9.25;;
68714;SDS011;55692;53.356;10.030;2024-01-30T06:56:47;18.08;;;8.75;;
68714;SDS011;55692;53.356;10.030;2024-01-30T06:59:13;18.75;;;9.15;;
68714;SDS011;55692;53.356;10.030;2024-01-30T07:01:39;25.35;;;12.15;;
68714;SDS011;55692;53.356;10.030;2024-01-30T07:04:05;25.60;;;12.73;;
68714;SDS011;55692;53.356;10.030;2024-01-30T07:06:31;24.20;;;12.07;;
68714;SDS011;55692;53.356;10.030;2024-01-30T07:08:57;30.60;;;15.52;;
68714;SDS011;55692;53.356;10.030;2024-01-30T07:11:23;29.73;;;15.05;;
68714;SDS011;55692;53.356;10.030;2024-01-30T07:13:50;35.83;;;16.70;;
68714;SDS011;55692;53.356;10.030;2024-01-30T07:16:16;34.92;;;17.48;;
68714;SDS011;55692;53.356;10.030;2024-01-30T07:18:43;33.65;;;15.93;;
68714;SDS011;55692;53.356;10.030;2024-01-30T07:21:09;36.00;;;18.67;;
68714;SDS011;55692;53.356;10.030;2024-01-30T07:23:35;36.55;;;17.02;;
68714;SDS011;55692;53.356;10.030;2024-01-30T07:26:03;36.67;;;17.63;;
68714;SDS011;55692;53.356;10.030;2024-01-30T07:28:29;37.03;;;18.25;;
68714;SDS011;55692;53.356;10.030;2024-01-30T07:30:55;37.30;;;17.80;;
68714;SDS011;55692;53.356;10.030;2024-01-30T07:33:21;60.03;;;21.42;;
68714;SDS011;55692;53.356;10.030;2024-01-30T07:35:47;41.38;;;19.08;;
68714;SDS011;55692;53.356;10.030;2024-01-30T07:38:13;31.88;;;17.80;;
68714;SDS011;55692;53.356;10.030;2024-01-30T07:40:39;35.50;;;18.60;;
68714;SDS011;55692;53.356;10.030;2024-01-30T07:43:06;39.85;;;17.85;;
68714;SDS011;55692;53.356;10.030;2024-01-30T07:45:33;36.03;;;17.65;;
68714;SDS011;55692;53.356;10.030;2024-01-30T07:47:59;33.28;;;17.45;;
68714;SDS011;55692;53.356;10.030;2024-01-30T07:50:25;37.47;;;17.85;;
68714;SDS011;55692;53.356;10.030;2024-01-30T07:52:51;25.10;;;14.20;;
68714;SDS011;55692;53.356;10.030;2024-01-30T07:55:20;31.45;;;15.00;;
68714;SDS011;55692;53.356;10.030;2024-01-30T07:57:49;28.25;;;14.93;;
68714;SDS011;55692;53.356;10.030;2024-01-30T08:00:16;23.92;;;14.20;;
68714;SDS011;55692;53.356;10.030;2024-01-30T08:02:42;23.52;;;12.68;;
68714;SDS011;55692;53.356;10.030;2024-01-30T08:05:08;31.55;;;13.82;;
68714;SDS011;55692;53.356;10.030;2024-01-30T08:07:36;30.45;;;14.18;;
68714;SDS011;55692;53.356;10.030;2024-01-30T08:10:02;31.08;;;15.18;;
68714;SDS011;55692;53.356;10.030;2024-01-30T08:12:28;28.40;;;14.30;;
68714;SDS011;55692;53.356;10.030;2024-01-30T08:14:54;26.75;;;14.45;;
68714;SDS011;55692;53.356;10.030;2024-01-30T08:17:20;22.92;;;13.30;;
68714;SDS011;55692;53.356;10.030;2024-01-30T08:19:46;20.48;;;11.98;;
68714;SDS011;55692;53.356;10.030;2024-01-30T08:22:12;19.02;;;11.93;;
68714;SDS011;55692;53.356;10.030;2024-01-30T08:24:38;24.95;;;12.63;;
68714;SDS011;55692;53.356;10.030;2024-01-30T08:27:05;18.48;;;11.57;;
68714;SDS011;55692;53.356;10.030;2024-01-30T08:29:34;21.08;;;11.68;;
68714;SDS011;55692;53.356;10.030;2024-01-30T08:32:00;18.77;;;10.73;;
68714;SDS011;55692;53.356;10.030;2024-01-30T08:34:26;18.65;;;10.93;;
68714;SDS011;55692;53.356;10.030;2024-01-30T08:36:52;24.77;;;11.55;;
68714;SDS011;55692;53.356;10.030;2024-01-30T08:39:19;19.73;;;11.82;;
68714;SDS011;55692;53.356;10.030;2024-01-30T08:41:44;20.75;;;12.10;;
68714;SDS011;55692;53.356;10.030;2024-01-30T08:44:10;18.88;;;10.98;;
68714;SDS011;55692;53.356;10.030;2024-01-30T08:46:37;25.88;;;13.05;;
68714;SDS011;55692;53.356;10.030;2024-01-30T08:49:03;21.83;;;12.48;;
68714;SDS011;55692;53.356;10.030;2024-01-30T08:51:32;24.40;;;12.40;;
68714;SDS011;55692;53.356;10.030;2024-01-30T08:53:59;22.05;;;12.43;;
68714;SDS011;55692;53.356;10.030;2024-01-30T08:56:25;23.48;;;12.52;;
68714;SDS011;55692;53.356;10.030;2024-01-30T08:58:51;21.85;;;12.23;;
68714;SDS011;55692;53.356;10.030;2024-01-30T09:01:17;19.38;;;11.68;;
68714;SDS011;55692;53.356;10.030;2024-01-30T09:03:43;19.25;;;11.23;;
68714;SDS011;55692;53.356;10.030;2024-01-30T09:06:11;17.88;;;10.73;;
68714;SDS011;55692;53.356;10.030;2024-01-30T09:08:37;20.13;;;11.43;;
68714;SDS011;55692;53.356;10.030;2024-01-30T09:11:13;23.27;;;10.82;;
68714;SDS011;55692;53.356;10.030;2024-01-30T09:13:39;18.33;;;10.93;;
68714;SDS011;55692;53.356;10.030;2024-01-30T09:16:05;20.67;;;11.95;;
68714;SDS011;55692;53.356;10.030;2024-01-30T09:18:31;21.23;;;10.82;;
68714;SDS011;55692;53.356;10.030;2024-01-30T09:20:57;15.70;;;10.18;;
68714;SDS011;55692;53.356;10.030;2024-01-30T09:23:24;20.60;;;11.60;;
68714;SDS011;55692;53.356;10.030;2024-01-30T09:25:50;18.20;;;10.93;;
68714;SDS011;55692;53.356;10.030;2024-01-30T09:28:19;15.63;;;10.40;;
68714;SDS011;55692;53.356;10.030;2024-01-30T09:30:45;16.13;;;10.40;;
68714;SDS011;55692;53.356;10.030;2024-01-30T09:33:11;16.83;;;10.68;;
68714;SDS011;55692;53.356;10.030;2024-01-30T09:35:37;15.52;;;10.55;;
68714;SDS011;55692;53.356;10.030;2024-01-30T09:38:03;18.35;;;10.82;;
68714;SDS011;55692;53.356;10.030;2024-01-30T09:40:29;16.15;;;9.60;;
68714;SDS011;55692;53.356;10.030;2024-01-30T09:42:55;17.02;;;10.32;;
68714;SDS011;55692;53.356;10.030;2024-01-30T09:45:24;19.92;;;11.00;;
68714;SDS011;55692;53.356;10.030;2024-01-30T09:47:51;18.02;;;9.95;;
68714;SDS011;55692;53.356;10.030;2024-01-30T09:50:18;16.80;;;9.73;;
68714;SDS011;55692;53.356;10.030;2024-01-30T09:52:44;14.98;;;9.57;;
68714;SDS011;55692;53.356;10.030;2024-01-30T09:55:11;18.10;;;9.18;;
68714;SDS011;55692;53.356;10.030;2024-01-30T09:57:37;15.68;;;9.90;;
68714;SDS011;55692;53.356;10.030;2024-01-30T10:00:03;14.63;;;9.20;;
68714;SDS011;55692;53.356;10.030;2024-01-30T10:02:32;21.02;;;9.65;;
68714;SDS011;55692;53.356;10.030;2024-01-30T10:04:59;18.60;;;9.82;;
68714;SDS011;55692;53.356;10.030;2024-01-30T10:07:25;15.02;;;9.07;;
68714;SDS011;55692;53.356;10.030;2024-01-30T10:09:52;19.48;;;9.73;;
68714;SDS011;55692;53.356;10.030;2024-01-30T10:12:18;16.20;;;9.15;;
68714;SDS011;55692;53.356;10.030;2024-01-30T10:14:44;12.98;;;8.75;;
68714;SDS011;55692;53.356;10.030;2024-01-30T10:17:10;15.82;;;8.55;;
68714;SDS011;55692;53.356;10.030;2024-01-30T10:19:37;14.15;;;8.68;;
68714;SDS011;55692;53.356;10.030;2024-01-30T10:22:03;12.55;;;7.72;;
68714;SDS011;55692;53.356;10.030;2024-01-30T10:24:30;13.20;;;7.63;;
68714;SDS011;55692;53.356;10.030;2024-01-30T10:26:56;17.15;;;8.23;;
68714;SDS011;55692;53.356;10.030;2024-01-30T10:29:23;20.40;;;9.45;;
68714;SDS011;55692;53.356;10.030;2024-01-30T10:32:02;10.68;;;6.80;;
68714;SDS011;55692;53.356;10.030;2024-01-30T10:34:28;14.73;;;8.40;;
68714;SDS011;55692;53.356;10.030;2024-01-30T10:36:58;13.50;;;7.60;;
68714;SDS011;55692;53.356;10.030;2024-01-30T10:39:26;14.60;;;7.90;;
68714;SDS011;55692;53.356;10.030;2024-01-30T10:41:56;12.48;;;7.97;;
68714;SDS011;55692;53.356;10.030;2024-01-30T10:44:23;13.45;;;8.18;;
68714;SDS011;55692;53.356;10.030;2024-01-30T10:46:51;13.95;;;7.68;;
68714;SDS011;55692;53.356;10.030;2024-01-30T10:49:20;11.18;;;6.80;;
68714;SDS011;55692;53.356;10.030;2024-01-30T10:51:47;16.17;;;7.45;;
68714;SDS011;55692;53.356;10.030;2024-01-30T10:54:13;12.82;;;6.78;;
68714;SDS011;55692;53.356;10.030;2024-01-30T10:56:41;14.77;;;8.15;;
68714;SDS011;55692;53.356;10.030;2024-01-30T10:59:08;16.80;;;8.68;;
68714;SDS011;55692;53.356;10.030;2024-01-30T11:01:35;15.63;;;8.20;;
68714;SDS011;55692;53.356;10.030;2024-01-30T11:04:01;18.08;;;8.50;;
68714;SDS011;55692;53.356;10.030;2024-01-30T11:06:27;12.23;;;7.57;;
68714;SDS011;55692;53.356;10.030;2024-01-30T11:11:29;14.30;;;6.93;;
68714;SDS011;55692;53.356;10.030;2024-01-30T11:13:55;11.98;;;7.00;;
68714;SDS011;55692;53.356;10.030;2024-01-30T11:16:21;16.13;;;7.18;;
68714;SDS011;55692;53.356;10.030;2024-01-30T11:18:50;12.82;;;7.07;;
68714;SDS011;55692;53.356;10.030;2024-01-30T11:21:16;12.65;;;6.70;;
68714;SDS011;55692;53.356;10.030;2024-01-30T11:23:42;14.75;;;7.28;;
68714;SDS011;55692;53.356;10.030;2024-01-30T11:26:12;12.85;;;6.70;;
68714;SDS011;55692;53.356;10.030;2024-01-30T11:28:38;12.00;;;6.35;;
68714;SDS011;55692;53.356;10.030;2024-01-30T11:31:04;10.40;;;6.35;;
68714;SDS011;55692;53.356;10.030;2024-01-30T11:33:31;11.55;;;6.60;;
68714;SDS011;55692;53.356;10.030;2024-01-30T11:35:59;10.50;;;6.57;;
68714;SDS011;55692;53.356;10.030;2024-01-30T11:38:25;10.02;;;5.90;;
68714;SDS011;55692;53.356;10.030;2024-01-30T11:40:55;8.27;;;5.80;;
68714;SDS011;55692;53.356;10.030;2024-01-30T11:43:24;9.35;;;6.07;;
68714;SDS011;55692;53.356;10.030;2024-01-30T11:45:50;11.57;;;6.10;;
68714;SDS011;55692;53.356;10.030;2024-01-30T11:48:17;11.23;;;6.68;;
68714;SDS011;55692;53.356;10.030;2024-01-30T11:50:43;9.40;;;6.07;;
68714;SDS011;55692;53.356;10.030;2024-01-30T11:53:12;9.57;;;5.50;;
68714;SDS011;55692;53.356;10.030;2024-01-30T11:55:38;12.57;;;6.65;;
68714;SDS011;55692;53.356;10.030;2024-01-30T11:58:04;9.35;;;6.72;;
68714;SDS011;55692;53.356;10.030;2024-01-30T12:00:30;9.90;;;5.70;;
68714;SDS011;55692;53.356;10.030;2024-01-30T12:02:58;9.15;;;5.95;;
68714;SDS011;55692;53.356;10.030;2024-01-30T12:05:26;13.77;;;6.20;;
68714;SDS011;55692;53.356;10.030;2024-01-30T12:07:52;10.50;;;5.72;;
68714;SDS011;55692;53.356;10.030;2024-01-30T12:10:19;11.43;;;6.60;;
68714;SDS011;55692;53.356;10.030;2024-01-30T12:12:45;12.05;;;5.95;;
68714;SDS011;55692;53.356;10.030;2024-01-30T12:15:12;9.93;;;6.00;;
68714;SDS011;55692;53.356;10.030;2024-01-30T12:17:38;8.95;;;6.00;;
68714;SDS011;55692;53.356;10.030;2024-01-30T12:22:37;10.77;;;5.87;;
68714;SDS011;55692;53.356;10.030;2024-01-30T12:25:10;13.80;;;6.68;;
68714;SDS011;55692;53.356;10.030;2024-01-30T12:27:37;13.70;;;6.38;;
68714;SDS011;55692;53.356;10.030;2024-01-30T12:30:10;13.88;;;7.32;;
68714;SDS011;55692;53.356;10.030;2024-01-30T12:32:37;10.23;;;6.13;;
68714;SDS011;55692;53.356;10.030;2024-01-30T12:35:11;12.55;;;6.35;;
68714;SDS011;55692;53.356;10.030;2024-01-30T12:37:38;14.13;;;6.68;;
68714;SDS011;55692;53.356;10.030;2024-01-30T12:40:04;10.23;;;5.88;;
68714;SDS011;55692;53.356;10.030;2024-01-30T12:42:31;12.63;;;6.03;;
68714;SDS011;55692;53.356;10.030;2024-01-30T12:44:57;13.02;;;6.88;;
68714;SDS011;55692;53.356;10.030;2024-01-30T12:47:24;10.20;;;5.93;;
68714;SDS011;55692;53.356;10.030;2024-01-30T12:49:50;10.95;;;6.20;;
68714;SDS011;55692;53.356;10.030;2024-01-30T12:52:20;11.75;;;6.50;;
68714;SDS011;55692;53.356;10.030;2024-01-30T12:54:49;11.80;;;6.78;;
68714;SDS011;55692;53.356;10.030;2024-01-30T12:57:15;12.73;;;7.05;;
68714;SDS011;55692;53.356;10.030;2024-01-30T12:59:42;10.23;;;6.25;;
68714;SDS011;55692;53.356;10.030;2024-01-30T13:02:08;11.27;;;6.40;;
68714;SDS011;55692;53.356;10.030;2024-01-30T13:04:34;11.63;;;7.18;;
68714;SDS011;55692;53.356;10.030;2024-01-30T13:07:00;14.00;;;7.15;;
68714;SDS011;55692;53.356;10.030;2024-01-30T13:09:27;12.10;;;6.10;;
68714;SDS011;55692;53.356;10.030;2024-01-30T13:11:53;10.18;;;6.13;;
68714;SDS011;55692;53.356;10.030;2024-01-30T13:14:19;13.30;;;6.88;;
68714;SDS011;55692;53.356;10.030;2024-01-30T13:16:45;11.45;;;6.45;;
68714;SDS011;55692;53.356;10.030;2024-01-30T13:19:11;12.38;;;6.95;;
68714;SDS011;55692;53.356;10.030;2024-01-30T13:21:37;9.88;;;6.13;;
68714;SDS011;55692;53.356;10.030;2024-01-30T13:24:03;12.55;;;6.65;;
68714;SDS011;55692;53.356;10.030;2024-01-30T13:26:31;12.10;;;5.88;;
68714;SDS011;55692;53.356;10.030;2024-01-30T13:28:57;13.63;;;7.20;;
68714;SDS011;55692;53.356;10.030;2024-01-30T13:31:23;12.00;;;6.88;;
68714;SDS011;55692;53.356;10.030;2024-01-30T13:33:50;9.65;;;6.32;;
68714;SDS011;55692;53.356;10.030;2024-01-30T13:36:16;15.13;;;6.82;;
68714;SDS011;55692;53.356;10.030;2024-01-30T13:38:42;13.45;;;7.10;;
68714;SDS011;55692;53.356;10.030;2024-01-30T13:41:08;12.73;;;7.00;;
68714;SDS011;55692;53.356;10.030;2024-01-30T13:43:35;20.77;;;7.68;;
68714;SDS011;55692;53.356;10.030;2024-01-30T13:46:01;9.63;;;5.93;;
68714;SDS011;55692;53.356;10.030;2024-01-30T13:48:27;13.52;;;7.85;;
68714;SDS011;55692;53.356;10.030;2024-01-30T13:50:54;11.43;;;6.90;;
68714;SDS011;55692;53.356;10.030;2024-01-30T13:53:21;10.32;;;6.50;;
68714;SDS011;55692;53.356;10.030;2024-01-30T13:55:47;11.65;;;6.38;;
68714;SDS011;55692;53.356;10.030;2024-01-30T13:58:13;15.18;;;7.00;;
68714;SDS011;55692;53.356;10.030;2024-01-30T14:00:39;12.93;;;6.78;;
68714;SDS011;55692;53.356;10.030;2024-01-30T14:03:05;11.82;;;6.93;;
68714;SDS011;55692;53.356;10.030;2024-01-30T14:05:31;13.95;;;6.88;;
68714;SDS011;55692;53.356;10.030;2024-01-30T14:07:57;13.65;;;6.57;;
68714;SDS011;55692;53.356;10.030;2024-01-30T14:10:24;16.50;;;7.30;;
68714;SDS011;55692;53.356;10.030;2024-01-30T14:12:50;11.68;;;6.93;;
68714;SDS011;55692;53.356;10.030;2024-01-30T14:15:16;13.23;;;6.80;;
68714;SDS011;55692;53.356;10.030;2024-01-30T14:17:43;13.20;;;7.00;;
68714;SDS011;55692;53.356;10.030;2024-01-30T14:20:10;11.77;;;6.45;;
68714;SDS011;55692;53.356;10.030;2024-01-30T14:22:36;16.23;;;6.85;;